Time,TemperatureF,DewpointF,PressureIn,WindDirection,WindDirectionDegrees,WindSpeedMPH,WindSpeedGustMPH,Humidity,HourlyPrecipIn,Conditions,Clouds,dailyrainin,SoftwareType,DateUTC
2013-04-29 00:05:00,67.3,66.7,29.81,SE,135,0.0,-999.0,98,-99.99,,,0.00,Acu-Link.com,2013-04-29 05:05:00,
2013-04-29 00:20:00,67.1,66.5,29.82,SSE,157,0.0,-999.0,98,-99.99,,,0.00,Acu-Link.com,2013-04-29 05:20:00,
2013-04-29 00:35:00,66.7,66.1,29.81,NE,45,0.0,-999.0,98,-99.99,,,0.00,Acu-Link.com,2013-04-29 05:35:00,
2013-04-29 00:50:00,66.4,65.8,29.82,SE,135,0.0,-999.0,98,-99.99,,,0.00,Acu-Link.com,2013-04-29 05:50:00,
2013-04-29 01:05:00,66.4,65.8,29.82,NE,45,0.0,-999.0,98,-99.99,,,0.00,Acu-Link.com,2013-04-29 06:05:00,
2013-04-29 01:20:00,66.4,65.8,29.82,SSW,202,0.0,-999.0,98,-99.99,,,0.00,Acu-Link.com,2013-04-29 06:20:00,
2013-04-29 01:36:00,65.8,65.2,29.81,South,180,0.0,-999.0,98,-99.99,,,0.00,Acu-Link.com,2013-04-29 06:36:00,
2013-04-29 01:51:00,65.5,64.9,29.80,SW,225,0.0,-999.0,98,-99.99,,,0.00,Acu-Link.com,2013-04-29 06:51:00,
2013-04-29 02:06:00,65.3,64.7,29.79,SSW,202,2.2,-999.0,98,-99.99,,,0.00,Acu-Link.com,2013-04-29 07:06:00,
2013-04-29 02:21:00,64.9,64.3,29.79,SSW,202,0.0,-999.0,98,-99.99,,,0.00,Acu-Link.com,2013-04-29 07:21:00,
2013-04-29 02:36:00,64.6,64.0,29.79,SW,225,0.0,-999.0,98,-99.99,,,0.00,Acu-Link.com,2013-04-29 07:36:00,
2013-04-29 02:51:00,64.6,64.0,29.79,SW,225,0.0,-999.0,98,-99.99,,,0.00,Acu-Link.com,2013-04-29 07:51:00,
2013-04-29 03:07:00,64.8,64.2,29.78,SW,225,0.0,-999.0,98,-99.99,,,0.00,Acu-Link.com,2013-04-29 08:07:00,
2013-04-29 03:22:00,64.6,64.0,29.77,West,270,0.0,-999.0,98,-99.99,,,0.00,Acu-Link.com,2013-04-29 08:22:00,
2013-04-29 03:37:00,64.4,63.8,29.77,East,90,0.0,-999.0,98,-99.99,,,0.00,Acu-Link.com,2013-04-29 08:37:00,
2013-04-29 03:52:00,64.4,63.8,29.77,SE,135,0.0,-999.0,98,-99.99,,,0.00,Acu-Link.com,2013-04-29 08:52:00,
2013-04-29 04:08:00,65.8,65.2,29.77,SE,135,1.1,-999.0,98,-99.99,,,0.00,Acu-Link.com,2013-04-29 09:08:00,
2013-04-29 04:23:00,66.2,65.6,29.77,SSE,157,0.0,-999.0,98,-99.99,,,0.00,Acu-Link.com,2013-04-29 09:23:00,
2013-04-29 04:38:00,66.6,66.0,29.77,NW,315,1.7,-999.0,98,-99.99,,,0.00,Acu-Link.com,2013-04-29 09:38:00,
2013-04-29 04:53:00,66.6,66.0,29.77,SSE,157,0.0,-999.0,98,-99.99,,,0.00,Acu-Link.com,2013-04-29 09:53:00,
2013-04-29 05:08:00,66.2,65.6,29.77,SSE,157,0.0,-999.0,98,-99.99,,,0.00,Acu-Link.com,2013-04-29 10:08:00,
2013-04-29 05:23:00,66.4,65.8,29.77,SSE,157,0.0,-999.0,98,-99.99,,,0.00,Acu-Link.com,2013-04-29 10:23:00,
2013-04-29 05:38:00,66.4,65.8,29.77,ESE,112,1.7,-999.0,98,-99.99,,,0.00,Acu-Link.com,2013-04-29 10:38:00,
2013-04-29 05:53:00,66.6,66.0,29.77,WNW,292,1.7,-999.0,98,-99.99,,,0.00,Acu-Link.com,2013-04-29 10:53:00,
2013-04-29 06:08:00,66.6,66.0,29.78,South,180,0.0,-999.0,98,-99.99,,,0.00,Acu-Link.com,2013-04-29 11:08:00,
2013-04-29 06:24:00,66.7,66.1,29.79,ENE,67,0.0,-999.0,98,-99.99,,,0.00,Acu-Link.com,2013-04-29 11:24:00,
2013-04-29 06:39:00,66.9,66.3,29.79,SE,135,2.2,-999.0,98,-99.99,,,0.00,Acu-Link.com,2013-04-29 11:39:00,
2013-04-29 06:54:00,66.9,66.3,29.79,SSW,202,0.0,-999.0,98,-99.99,,,0.00,Acu-Link.com,2013-04-29 11:54:00,
2013-04-29 07:09:00,67.3,66.7,29.80,SSE,157,1.7,-999.0,98,-99.99,,,0.00,Acu-Link.com,2013-04-29 12:09:00,
2013-04-29 07:24:00,67.5,66.9,29.80,WSW,247,0.0,-999.0,98,-99.99,,,0.00,Acu-Link.com,2013-04-29 12:24:00,
2013-04-29 07:39:00,67.6,67.0,29.80,NE,45,0.0,-999.0,98,-99.99,,,0.00,Acu-Link.com,2013-04-29 12:39:00,
2013-04-29 07:54:00,68.2,67.6,29.80,ESE,112,0.0,-999.0,98,-99.99,,,0.00,Acu-Link.com,2013-04-29 12:54:00,
2013-04-29 08:09:00,70.3,69.7,29.80,ESE,112,0.0,-999.0,98,-99.99,,,0.00,Acu-Link.com,2013-04-29 13:09:00,
2013-04-29 08:24:00,73.4,72.8,29.81,SE,135,0.0,-999.0,98,-99.99,,,0.00,Acu-Link.com,2013-04-29 13:24:00,
2013-04-29 08:40:00,70.7,70.1,29.81,SSW,202,0.0,-999.0,98,-99.99,,,0.00,Acu-Link.com,2013-04-29 13:40:00,
2013-04-29 08:55:00,71.1,70.5,29.81,SE,135,3.2,-999.0,98,-99.99,,,0.00,Acu-Link.com,2013-04-29 13:55:00,
2013-04-29 09:10:00,71.1,70.5,29.81,ESE,112,4.2,-999.0,98,-99.99,,,0.00,Acu-Link.com,2013-04-29 14:10:00,
2013-04-29 09:25:00,75.4,74.8,29.80,SSW,202,1.1,-999.0,98,-99.99,,,0.00,Acu-Link.com,2013-04-29 14:25:00,
2013-04-29 09:40:00,80.2,79.6,29.80,SSE,157,4.2,-999.0,98,-99.99,,,0.00,Acu-Link.com,2013-04-29 14:40:00,
2013-04-29 09:55:00,83.8,83.2,29.80,SW,225,1.7,-999.0,98,-99.99,,,0.00,Acu-Link.com,2013-04-29 14:55:00,
2013-04-29 10:10:00,76.8,76.2,29.79,West,270,2.7,-999.0,98,-99.99,,,0.00,Acu-Link.com,2013-04-29 15:10:00,
2013-04-29 10:25:00,78.8,78.2,29.79,ESE,112,0.0,-999.0,98,-99.99,,,0.00,Acu-Link.com,2013-04-29 15:25:00,
2013-04-29 10:40:00,81.0,80.4,29.78,WSW,247,0.0,-999.0,98,-99.99,,,0.00,Acu-Link.com,2013-04-29 15:40:00,
2013-04-29 10:56:00,82.6,82.0,29.78,SW,225,3.2,-999.0,98,-99.99,,,0.00,Acu-Link.com,2013-04-29 15:56:00,
2013-04-29 11:11:00,83.3,82.7,29.78,North,0,2.7,-999.0,98,-99.99,,,0.00,Acu-Link.com,2013-04-29 16:11:00,
2013-04-29 11:26:00,88.3,87.7,29.78,SSW,202,3.7,-999.0,98,-99.99,,,0.00,Acu-Link.com,2013-04-29 16:26:00,
2013-04-29 11:41:00,89.6,89.0,29.77,West,270,3.2,-999.0,98,-99.99,,,0.00,Acu-Link.com,2013-04-29 16:41:00,
2013-04-29 11:56:00,88.3,87.7,29.77,SE,135,6.3,-999.0,98,-99.99,,,0.00,Acu-Link.com,2013-04-29 16:56:00,
2013-04-29 12:11:00,89.6,89.0,29.77,South,180,4.7,-999.0,98,-99.99,,,0.00,Acu-Link.com,2013-04-29 17:11:00,
2013-04-29 12:26:00,90.7,90.1,29.76,East,90,3.7,-999.0,98,-99.99,,,0.00,Acu-Link.com,2013-04-29 17:26:00,
2013-04-29 12:41:00,91.9,91.3,29.76,ESE,112,3.2,-999.0,98,-99.99,,,0.00,Acu-Link.com,2013-04-29 17:41:00,
2013-04-29 12:56:00,90.7,90.1,29.75,SSE,157,3.7,-999.0,98,-99.99,,,0.00,Acu-Link.com,2013-04-29 17:56:00,
2013-04-29 13:11:00,81.9,81.3,29.75,NNE,22,1.7,-999.0,98,-99.99,,,0.00,Acu-Link.com,2013-04-29 18:11:00,
2013-04-29 13:27:00,80.8,80.2,29.73,NNW,337,1.7,-999.0,98,-99.99,,,0.00,Acu-Link.com,2013-04-29 18:27:00,
2013-04-29 13:42:00,82.9,82.3,29.73,ENE,67,0.0,-999.0,98,-99.99,,,0.00,Acu-Link.com,2013-04-29 18:42:00,
2013-04-29 13:57:00,91.4,90.8,29.73,East,90,2.7,-999.0,98,-99.99,,,0.00,Acu-Link.com,2013-04-29 18:57:00,
2013-04-29 14:12:00,90.3,89.7,29.72,South,180,6.3,-999.0,98,-99.99,,,0.00,Acu-Link.com,2013-04-29 19:12:00,
2013-04-29 14:27:00,91.9,91.3,29.71,SE,135,6.3,-999.0,98,-99.99,,,0.00,Acu-Link.com,2013-04-29 19:27:00,
2013-04-29 14:42:00,90.3,89.7,29.71,SE,135,4.7,-999.0,98,-99.99,,,0.00,Acu-Link.com,2013-04-29 19:42:00,
2013-04-29 14:57:00,89.4,88.8,29.70,West,270,1.1,-999.0,98,-99.99,,,0.00,Acu-Link.com,2013-04-29 19:57:00,
2013-04-29 15:12:00,91.9,91.3,29.69,ENE,67,4.7,-999.0,98,-99.99,,,0.00,Acu-Link.com,2013-04-29 20:12:00,
2013-04-29 15:28:00,90.3,89.7,29.68,ESE,112,7.8,-999.0,98,-99.99,,,0.00,Acu-Link.com,2013-04-29 20:28:00,
2013-04-29 15:43:00,91.9,91.3,29.67,South,180,3.2,-999.0,98,-99.99,,,0.00,Acu-Link.com,2013-04-29 20:43:00,
2013-04-29 15:58:00,82.2,80.0,29.67,ESE,112,7.8,-999.0,93,-99.99,,,0.00,Acu-Link.com,2013-04-29 20:58:00,
2013-04-29 16:13:00,83.5,65.6,29.67,SE,135,6.8,-999.0,55,-99.99,,,0.00,Acu-Link.com,2013-04-29 21:13:00,
2013-04-29 16:28:00,84.4,67.0,29.66,ESE,112,8.9,-999.0,56,-99.99,,,0.00,Acu-Link.com,2013-04-29 21:28:00,
2013-04-29 16:43:00,83.8,68.4,29.66,East,90,7.3,-999.0,60,-99.99,,,0.00,Acu-Link.com,2013-04-29 21:43:00,
2013-04-29 16:58:00,84.0,68.1,29.65,East,90,8.9,-999.0,59,-99.99,,,0.00,Acu-Link.com,2013-04-29 21:58:00,
2013-04-29 17:14:00,83.7,66.8,29.65,SE,135,5.3,-999.0,57,-99.99,,,0.00,Acu-Link.com,2013-04-29 22:14:00,
2013-04-29 17:29:00,82.4,67.1,29.65,ESE,112,4.2,-999.0,60,-99.99,,,0.00,Acu-Link.com,2013-04-29 22:29:00,
2013-04-29 17:44:00,83.1,66.3,29.65,East,90,7.8,-999.0,57,-99.99,,,0.00,Acu-Link.com,2013-04-29 22:44:00,
2013-04-29 17:59:00,82.2,64.9,29.66,ESE,112,8.3,-999.0,56,-99.99,,,0.00,Acu-Link.com,2013-04-29 22:59:00,
2013-04-29 18:14:00,80.8,65.1,29.65,SE,135,3.7,-999.0,59,-99.99,,,0.00,Acu-Link.com,2013-04-29 23:14:00,
2013-04-29 18:29:00,79.9,69.2,29.66,ENE,67,5.8,-999.0,70,-99.99,,,0.00,Acu-Link.com,2013-04-29 23:29:00,
2013-04-29 18:44:00,77.4,76.8,29.67,ESE,112,4.7,-999.0,98,-99.99,,,0.00,Acu-Link.com,2013-04-29 23:44:00,
2013-04-29 18:59:00,77.0,76.4,29.67,East,90,3.2,-999.0,98,-99.99,,,0.00,Acu-Link.com,2013-04-29 23:59:00,
2013-04-29 19:14:00,76.5,75.9,29.67,ESE,112,7.3,-999.0,98,-99.99,,,0.00,Acu-Link.com,2013-04-30 00:14:00,
2013-04-29 19:30:00,72.7,72.1,29.70,SE,135,10.9,-999.0,98,-99.99,,,0.00,Acu-Link.com,2013-04-30 00:30:00,
2013-04-29 19:45:00,68.4,67.8,29.71,SE,135,9.4,-999.0,98,-99.99,,,0.00,Acu-Link.com,2013-04-30 00:45:00,
2013-04-29 20:00:00,67.8,67.2,29.71,ESE,112,5.3,-999.0,98,-99.99,,,0.00,Acu-Link.com,2013-04-30 01:00:00,
2013-04-29 20:15:00,68.0,67.4,29.72,SE,135,4.2,-999.0,98,-99.99,,,0.00,Acu-Link.com,2013-04-30 01:15:00,
2013-04-29 20:30:00,67.3,66.7,29.73,ESE,112,5.8,-999.0,98,-99.99,,,0.00,Acu-Link.com,2013-04-30 01:30:00,
2013-04-29 20:45:00,67.3,66.7,29.73,ESE,112,5.8,-999.0,98,-99.99,,,0.00,Acu-Link.com,2013-04-30 01:45:00,
2013-04-29 21:00:00,67.1,66.5,29.74,SE,135,4.7,-999.0,98,-99.99,,,0.00,Acu-Link.com,2013-04-30 02:00:00,
2013-04-29 21:15:00,66.6,66.0,29.74,ESE,112,2.7,-999.0,98,-99.99,,,0.00,Acu-Link.com,2013-04-30 02:15:00,
2013-04-29 21:30:00,66.6,66.0,29.74,NE,45,1.1,-999.0,98,-99.99,,,0.00,Acu-Link.com,2013-04-30 02:30:00,
2013-04-29 21:46:00,66.2,65.6,29.74,ESE,112,1.1,-999.0,98,-99.99,,,0.00,Acu-Link.com,2013-04-30 02:46:00,
2013-04-29 22:01:00,66.0,65.4,29.75,SSE,157,1.7,-999.0,98,-99.99,,,0.00,Acu-Link.com,2013-04-30 03:01:00,
2013-04-29 22:16:00,65.7,65.1,29.75,WNW,292,0.0,-999.0,98,-99.99,,,0.00,Acu-Link.com,2013-04-30 03:16:00,
2013-04-29 22:31:00,65.3,64.7,29.75,SSW,202,1.7,-999.0,98,-99.99,,,0.00,Acu-Link.com,2013-04-30 03:31:00,
2013-04-29 22:46:00,65.3,64.7,29.75,West,270,0.0,-999.0,98,-99.99,,,0.00,Acu-Link.com,2013-04-30 03:46:00,
2013-04-29 23:01:00,64.9,64.3,29.75,ENE,67,0.0,-999.0,98,-99.99,,,0.00,Acu-Link.com,2013-04-30 04:01:00,
2013-04-29 23:16:00,64.8,64.2,29.75,South,180,0.0,-999.0,98,-99.99,,,0.00,Acu-Link.com,2013-04-30 04:16:00,
2013-04-29 23:31:00,64.4,63.8,29.75,ESE,112,0.0,-999.0,98,-99.99,,,0.00,Acu-Link.com,2013-04-30 04:31:00,
2013-04-29 23:46:00,64.0,63.4,29.74,ESE,112,2.7,-999.0,98,-99.99,,,0.00,Acu-Link.com,2013-04-30 04:46:00,